sensor_id;sensor_type;location;lat;lon;timestamp;temperature;humidity
18717;DHT22;9487;50.892;6.906;2024-03-08T00:00:18;5.50;1.00
18717;DHT22;9487;50.892;6.906;2024-03-08T00:02:46;5.40;1.00
18717;DHT22;9487;50.892;6.906;2024-03-08T00:05:14;5.40;1.00
18717;DHT22;9487;50.892;6.906;2024-03-08T00:07:41;5.40;1.00
18717;DHT22;9487;50.892;6.906;2024-03-08T00:10:11;5.20;1.00
18717;DHT22;9487;50.892;6.906;2024-03-08T00:12:38;5.10;1.00
18717;DHT22;9487;50.892;6.906;2024-03-08T00:15:08;5.00;1.00
18717;DHT22;9487;50.892;6.906;2024-03-08T00:17:35;5.00;1.00
18717;DHT22;9487;50.892;6.906;2024-03-08T00:20:02;5.10;1.00
18717;DHT22;9487;50.892;6.906;2024-03-08T00:22:33;5.20;1.00
18717;DHT22;9487;50.892;6.906;2024-03-08T00:25:01;5.20;1.00
18717;DHT22;9487;50.892;6.906;2024-03-08T00:27:30;5.20;1.00
18717;DHT22;9487;50.892;6.906;2024-03-08T00:29:57;5.20;1.00
18717;DHT22;9487;50.892;6.906;2024-03-08T00:32:24;5.20;1.00
18717;DHT22;9487;50.892;6.906;2024-03-08T00:34:51;5.10;1.00
18717;DHT22;9487;50.892;6.906;2024-03-08T00:37:18;5.10;1.00
18717;DHT22;9487;50.892;6.906;2024-03-08T00:39:45;5.10;1.00
18717;DHT22;9487;50.892;6.906;2024-03-08T00:42:12;5.10;1.00
18717;DHT22;9487;50.892;6.906;2024-03-08T00:44:41;5.10;1.00
18717;DHT22;9487;50.892;6.906;2024-03-08T00:47:08;5.10;1.00
18717;DHT22;9487;50.892;6.906;2024-03-08T00:49:35;5.10;1.00
18717;DHT22;9487;50.892;6.906;2024-03-08T00:52:04;5.00;1.00
18717;DHT22;9487;50.892;6.906;2024-03-08T00:54:31;5.00;1.00
18717;DHT22;9487;50.892;6.906;2024-03-08T00:56:58;4.90;1.00
18717;DHT22;9487;50.892;6.906;2024-03-08T00:59:26;4.90;1.00
18717;DHT22;9487;50.892;6.906;2024-03-08T01:01:54;4.90;1.00
18717;DHT22;9487;50.892;6.906;2024-03-08T01:04:22;4.80;1.00
18717;DHT22;9487;50.892;6.906;2024-03-08T01:06:51;4.80;1.00
18717;DHT22;9487;50.892;6.906;2024-03-08T01:09:18;4.80;1.00
18717;DHT22;9487;50.892;6.906;2024-03-08T01:11:47;4.80;1.00
18717;DHT22;9487;50.892;6.906;2024-03-08T01:14:15;4.80;1.00
18717;DHT22;9487;50.892;6.906;2024-03-08T01:16:43;4.80;1.00
18717;DHT22;9487;50.892;6.906;2024-03-08T01:19:11;4.90;1.00
18717;DHT22;9487;50.892;6.906;2024-03-08T01:21:39;4.90;1.00
18717;DHT22;9487;50.892;6.906;2024-03-08T01:24:06;5.20;1.00
18717;DHT22;9487;50.892;6.906;2024-03-08T01:26:33;5.20;1.00
18717;DHT22;9487;50.892;6.906;2024-03-08T01:29:00;5.20;1.00
18717;DHT22;9487;50.892;6.906;2024-03-08T01:31:28;5.10;1.00
18717;DHT22;9487;50.892;6.906;2024-03-08T01:33:55;5.00;1.00
18717;DHT22;9487;50.892;6.906;2024-03-08T01:36:24;4.80;1.00
18717;DHT22;9487;50.892;6.906;2024-03-08T01:38:51;4.70;1.00
18717;DHT22;9487;50.892;6.906;2024-03-08T01:41:18;4.70;1.00
18717;DHT22;9487;50.892;6.906;2024-03-08T01:43:45;4.70;1.00
18717;DHT22;9487;50.892;6.906;2024-03-08T01:46:15;4.80;1.00
18717;DHT22;9487;50.892;6.906;2024-03-08T01:48:43;4.80;1.00
18717;DHT22;9487;50.892;6.906;2024-03-08T01:51:11;4.70;1.00
18717;DHT22;9487;50.892;6.906;2024-03-08T01:53:42;4.80;1.00
18717;DHT22;9487;50.892;6.906;2024-03-08T01:56:11;4.70;1.00
18717;DHT22;9487;50.892;6.906;2024-03-08T01:58:41;4.70;1.00
18717;DHT22;9487;50.892;6.906;2024-03-08T02:01:10;4.60;1.00
18717;DHT22;9487;50.892;6.906;2024-03-08T02:03:39;4.60;1.00
18717;DHT22;9487;50.892;6.906;2024-03-08T02:06:05;4.70;1.00
18717;DHT22;9487;50.892;6.906;2024-03-08T02:08:35;4.60;1.00
18717;DHT22;9487;50.892;6.906;2024-03-08T02:11:05;4.60;1.00
18717;DHT22;9487;50.892;6.906;2024-03-08T02:13:32;4.60;1.00
18717;DHT22;9487;50.892;6.906;2024-03-08T02:16:00;4.60;1.00
18717;DHT22;9487;50.892;6.906;2024-03-08T02:18:28;4.60;1.00
18717;DHT22;9487;50.892;6.906;2024-03-08T02:20:58;4.60;1.00
18717;DHT22;9487;50.892;6.906;2024-03-08T02:23:26;4.60;1.00
18717;DHT22;9487;50.892;6.906;2024-03-08T02:25:53;4.50;1.00
18717;DHT22;9487;50.892;6.906;2024-03-08T02:28:22;4.50;1.00
18717;DHT22;9487;50.892;6.906;2024-03-08T02:30:49;4.40;1.00
18717;DHT22;9487;50.892;6.906;2024-03-08T02:33:20;4.50;1.00
18717;DHT22;9487;50.892;6.906;2024-03-08T02:35:48;4.40;1.00
18717;DHT22;9487;50.892;6.906;2024-03-08T02:38:18;4.30;1.00
18717;DHT22;9487;50.892;6.906;2024-03-08T02:40:46;4.30;1.00
18717;DHT22;9487;50.892;6.906;2024-03-08T02:43:13;4.40;1.00
18717;DHT22;9487;50.892;6.906;2024-03-08T02:45:41;4.40;1.00
18717;DHT22;9487;50.892;6.906;2024-03-08T02:48:09;4.30;1.00
18717;DHT22;9487;50.892;6.906;2024-03-08T02:50:37;4.30;1.00
18717;DHT22;9487;50.892;6.906;2024-03-08T02:53:05;4.20;1.00
18717;DHT22;9487;50.892;6.906;2024-03-08T02:55:34;4.30;1.00
18717;DHT22;9487;50.892;6.906;2024-03-08T02:58:01;4.30;1.00
18717;DHT22;9487;50.892;6.906;2024-03-08T03:00:29;4.30;1.00
18717;DHT22;9487;50.892;6.906;2024-03-08T03:02:56;4.20;1.00
18717;DHT22;9487;50.892;6.906;2024-03-08T03:05:23;4.10;1.00
18717;DHT22;9487;50.892;6.906;2024-03-08T03:07:51;4.10;1.00
18717;DHT22;9487;50.892;6.906;2024-03-08T03:10:18;4.20;1.00
18717;DHT22;9487;50.892;6.906;2024-03-08T03:12:49;4.20;1.00
18717;DHT22;9487;50.892;6.906;2024-03-08T03:15:16;4.30;1.00
18717;DHT22;9487;50.892;6.906;2024-03-08T03:17:46;4.40;1.00
18717;DHT22;9487;50.892;6.906;2024-03-08T03:20:12;4.40;1.00
18717;DHT22;9487;50.892;6.906;2024-03-08T03:22:40;4.40;1.00
18717;DHT22;9487;50.892;6.906;2024-03-08T03:25:08;4.30;1.00
18717;DHT22;9487;50.892;6.906;2024-03-08T03:27:36;4.20;1.00
18717;DHT22;9487;50.892;6.906;2024-03-08T03:30:06;4.10;1.00
18717;DHT22;9487;50.892;6.906;2024-03-08T03:32:46;4.10;1.00
18717;DHT22;9487;50.892;6.906;2024-03-08T03:35:13;4.10;1.00
18717;DHT22;9487;50.892;6.906;2024-03-08T03:37:41;4.10;1.00
18717;DHT22;9487;50.892;6.906;2024-03-08T03:40:11;4.10;1.00
18717;DHT22;9487;50.892;6.906;2024-03-08T03:42:39;4.10;1.00
18717;DHT22;9487;50.892;6.906;2024-03-08T03:45:08;4.10;1.00
18717;DHT22;9487;50.892;6.906;2024-03-08T03:47:36;4.20;1.00
18717;DHT22;9487;50.892;6.906;2024-03-08T03:50:05;4.20;1.00
18717;DHT22;9487;50.892;6.906;2024-03-08T03:52:32;4.20;1.00
18717;DHT22;9487;50.892;6.906;2024-03-08T03:54:59;4.20;1.00
18717;DHT22;9487;50.892;6.906;2024-03-08T03:57:26;4.20;1.00
18717;DHT22;9487;50.892;6.906;2024-03-08T03:59:53;4.30;1.00
18717;DHT22;9487;50.892;6.906;2024-03-08T04:02:22;4.20;1.00
18717;DHT22;9487;50.892;6.906;2024-03-08T04:04:48;4.20;1.00
18717;DHT22;9487;50.892;6.906;2024-03-08T04:07:15;4.20;1.00
18717;DHT22;9487;50.892;6.906;2024-03-08T04:09:42;4.10;1.00
18717;DHT22;9487;50.892;6.906;2024-03-08T04:12:09;4.10;1.00
18717;DHT22;9487;50.892;6.906;2024-03-08T04:14:36;4.00;1.00
18717;DHT22;9487;50.892;6.906;2024-03-08T04:17:04;4.00;1.00
18717;DHT22;9487;50.892;6.906;2024-03-08T04:19:32;4.10;1.00
18717;DHT22;9487;50.892;6.906;2024-03-08T04:22:00;4.10;1.00
18717;DHT22;9487;50.892;6.906;2024-03-08T04:24:26;4.10;1.00
18717;DHT22;9487;50.892;6.906;2024-03-08T04:26:53;4.20;1.00
18717;DHT22;9487;50.892;6.906;2024-03-08T04:29:20;4.10;1.00
18717;DHT22;9487;50.892;6.906;2024-03-08T04:31:47;4.00;1.00
18717;DHT22;9487;50.892;6.906;2024-03-08T04:34:14;3.90;1.00
18717;DHT22;9487;50.892;6.906;2024-03-08T04:36:42;3.90;1.00
18717;DHT22;9487;50.892;6.906;2024-03-08T04:39:12;4.00;1.00
18717;DHT22;9487;50.892;6.906;2024-03-08T04:41:39;4.00;1.00
18717;DHT22;9487;50.892;6.906;2024-03-08T04:44:09;4.00;1.00
18717;DHT22;9487;50.892;6.906;2024-03-08T04:46:38;4.00;1.00
18717;DHT22;9487;50.892;6.906;2024-03-08T04:49:05;4.00;1.00
18717;DHT22;9487;50.892;6.906;2024-03-08T04:51:32;4.10;1.00
18717;DHT22;9487;50.892;6.906;2024-03-08T04:54:01;4.10;1.00
18717;DHT22;9487;50.892;6.906;2024-03-08T04:56:28;4.00;1.00
18717;DHT22;9487;50.892;6.906;2024-03-08T04:58:55;3.90;1.00
18717;DHT22;9487;50.892;6.906;2024-03-08T05:01:22;3.90;1.00
18717;DHT22;9487;50.892;6.906;2024-03-08T05:03:48;3.80;1.00
18717;DHT22;9487;50.892;6.906;2024-03-08T05:06:16;3.90;1.00
18717;DHT22;9487;50.892;6.906;2024-03-08T05:08:43;4.00;1.00
18717;DHT22;9487;50.892;6.906;2024-03-08T05:11:13;3.90;1.00
18717;DHT22;9487;50.892;6.906;2024-03-08T05:13:40;3.90;1.00
18717;DHT22;9487;50.892;6.906;2024-03-08T05:16:07;3.90;1.00
18717;DHT22;9487;50.892;6.906;2024-03-08T05:18:34;3.90;1.00
18717;DHT22;9487;50.892;6.906;2024-03-08T05:21:01;3.90;1.00
18717;DHT22;9487;50.892;6.906;2024-03-08T05:23:29;3.90;1.00
18717;DHT22;9487;50.892;6.906;2024-03-08T05:25:56;3.90;1.00
18717;DHT22;9487;50.892;6.906;2024-03-08T05:28:25;3.90;1.00
18717;DHT22;9487;50.892;6.906;2024-03-08T05:30:52;3.90;1.00
18717;DHT22;9487;50.892;6.906;2024-03-08T05:33:21;3.80;1.00
18717;DHT22;9487;50.892;6.906;2024-03-08T05:35:49;3.80;1.00
18717;DHT22;9487;50.892;6.906;2024-03-08T05:38:17;3.70;1.00
18717;DHT22;9487;50.892;6.906;2024-03-08T05:40:45;3.70;1.00
18717;DHT22;9487;50.892;6.906;2024-03-08T05:43:12;3.70;1.00
18717;DHT22;9487;50.892;6.906;2024-03-08T05:45:45;3.70;1.00
18717;DHT22;9487;50.892;6.906;2024-03-08T05:48:13;3.70;1.00
18717;DHT22;9487;50.892;6.906;2024-03-08T05:50:40;3.70;1.00
18717;DHT22;9487;50.892;6.906;2024-03-08T05:53:09;3.70;1.00
18717;DHT22;9487;50.892;6.906;2024-03-08T05:55:35;3.70;1.00
18717;DHT22;9487;50.892;6.906;2024-03-08T05:58:02;3.60;1.00
18717;DHT22;9487;50.892;6.906;2024-03-08T06:00:29;3.50;1.00
18717;DHT22;9487;50.892;6.906;2024-03-08T06:02:58;3.40;1.00
18717;DHT22;9487;50.892;6.906;2024-03-08T06:05:25;3.30;1.00
18717;DHT22;9487;50.892;6.906;2024-03-08T06:07:52;3.20;1.00
18717;DHT22;9487;50.892;6.906;2024-03-08T06:10:20;3.20;1.00
18717;DHT22;9487;50.892;6.906;2024-03-08T06:12:47;3.10;1.00
18717;DHT22;9487;50.892;6.906;2024-03-08T06:15:13;3.10;1.00
18717;DHT22;9487;50.892;6.906;2024-03-08T06:17:41;3.10;1.00
18717;DHT22;9487;50.892;6.906;2024-03-08T06:20:10;3.10;1.00
18717;DHT22;9487;50.892;6.906;2024-03-08T06:22:38;3.20;1.00
18717;DHT22;9487;50.892;6.906;2024-03-08T06:25:07;3.20;1.00
18717;DHT22;9487;50.892;6.906;2024-03-08T06:27:33;3.30;1.00
18717;DHT22;9487;50.892;6.906;2024-03-08T06:30:00;3.50;1.00
18717;DHT22;9487;50.892;6.906;2024-03-08T06:32:30;3.60;1.00
18717;DHT22;9487;50.892;6.906;2024-03-08T06:34:58;3.60;1.00
18717;DHT22;9487;50.892;6.906;2024-03-08T06:37:26;3.70;1.00
18717;DHT22;9487;50.892;6.906;2024-03-08T06:39:53;3.80;1.00
18717;DHT22;9487;50.892;6.906;2024-03-08T06:42:21;3.80;1.00
18717;DHT22;9487;50.892;6.906;2024-03-08T06:44:48;3.80;1.00
18717;DHT22;9487;50.892;6.906;2024-03-08T06:47:15;3.90;1.00
18717;DHT22;9487;50.892;6.906;2024-03-08T06:49:43;4.00;1.00
18717;DHT22;9487;50.892;6.906;2024-03-08T06:52:11;4.00;1.00
18717;DHT22;9487;50.892;6.906;2024-03-08T06:54:39;4.00;1.00
18717;DHT22;9487;50.892;6.906;2024-03-08T06:57:06;4.00;1.00
18717;DHT22;9487;50.892;6.906;2024-03-08T06:59:33;3.90;1.00
18717;DHT22;9487;50.892;6.906;2024-03-08T07:02:01;3.90;1.00
18717;DHT22;9487;50.892;6.906;2024-03-08T07:04:28;3.90;1.00
18717;DHT22;9487;50.892;6.906;2024-03-08T07:06:55;3.90;1.00
18717;DHT22;9487;50.892;6.906;2024-03-08T07:09:23;4.00;1.00
18717;DHT22;9487;50.892;6.906;2024-03-08T07:11:51;4.10;1.00
18717;DHT22;9487;50.892;6.906;2024-03-08T07:14:21;4.30;1.00
18717;DHT22;9487;50.892;6.906;2024-03-08T07:16:49;4.30;1.00
18717;DHT22;9487;50.892;6.906;2024-03-08T07:19:16;4.40;1.00
18717;DHT22;9487;50.892;6.906;2024-03-08T07:21:44;4.30;1.00
18717;DHT22;9487;50.892;6.906;2024-03-08T07:24:13;4.40;1.00
18717;DHT22;9487;50.892;6.906;2024-03-08T07:26:55;4.40;1.00
18717;DHT22;9487;50.892;6.906;2024-03-08T07:29:21;4.50;1.00
18717;DHT22;9487;50.892;6.906;2024-03-08T07:31:48;4.70;1.00
18717;DHT22;9487;50.892;6.906;2024-03-08T07:34:21;4.90;1.00
18717;DHT22;9487;50.892;6.906;2024-03-08T07:36:48;4.90;1.00
18717;DHT22;9487;50.892;6.906;2024-03-08T07:39:16;4.90;1.00
18717;DHT22;9487;50.892;6.906;2024-03-08T07:41:44;5.10;1.00
18717;DHT22;9487;50.892;6.906;2024-03-08T07:44:12;5.10;1.00
18717;DHT22;9487;50.892;6.906;2024-03-08T07:46:39;5.30;1.00
18717;DHT22;9487;50.892;6.906;2024-03-08T07:49:08;5.30;1.00
18717;DHT22;9487;50.892;6.906;2024-03-08T07:51:37;5.10;1.00
18717;DHT22;9487;50.892;6.906;2024-03-08T07:54:04;5.20;1.00
18717;DHT22;9487;50.892;6.906;2024-03-08T07:56:31;5.30;1.00
18717;DHT22;9487;50.892;6.906;2024-03-08T07:58:58;5.50;1.00
18717;DHT22;9487;50.892;6.906;2024-03-08T08:01:26;5.60;1.00
18717;DHT22;9487;50.892;6.906;2024-03-08T08:03:53;5.60;1.00
18717;DHT22;9487;50.892;6.906;2024-03-08T08:06:22;5.70;1.00
18717;DHT22;9487;50.892;6.906;2024-03-08T08:08:49;5.70;1.00
18717;DHT22;9487;50.892;6.906;2024-03-08T08:11:16;5.70;1.00
18717;DHT22;9487;50.892;6.906;2024-03-08T08:13:42;5.70;1.00
18717;DHT22;9487;50.892;6.906;2024-03-08T08:16:09;5.90;1.00
18717;DHT22;9487;50.892;6.906;2024-03-08T08:18:42;6.00;1.00
18717;DHT22;9487;50.892;6.906;2024-03-08T08:21:11;6.10;1.00
18717;DHT22;9487;50.892;6.906;2024-03-08T08:23:38;6.70;1.00
18717;DHT22;9487;50.892;6.906;2024-03-08T08:26:05;7.10;1.00
18717;DHT22;9487;50.892;6.906;2024-03-08T08:28:33;7.60;1.00
18717;DHT22;9487;50.892;6.906;2024-03-08T08:31:02;8.00;1.00
18717;DHT22;9487;50.892;6.906;2024-03-08T08:33:29;8.10;1.00
18717;DHT22;9487;50.892;6.906;2024-03-08T08:35:56;7.90;1.00
18717;DHT22;9487;50.892;6.906;2024-03-08T08:38:23;7.90;1.00
18717;DHT22;9487;50.892;6.906;2024-03-08T08:40:50;7.80;1.00
18717;DHT22;9487;50.892;6.906;2024-03-08T08:43:18;7.70;99.50
18717;DHT22;9487;50.892;6.906;2024-03-08T08:45:46;7.50;99.90
18717;DHT22;9487;50.892;6.906;2024-03-08T08:48:15;7.40;99.90
18717;DHT22;9487;50.892;6.906;2024-03-08T08:50:42;7.40;99.90
18717;DHT22;9487;50.892;6.906;2024-03-08T08:53:11;7.50;99.90
18717;DHT22;9487;50.892;6.906;2024-03-08T08:55:37;7.50;99.90
18717;DHT22;9487;50.892;6.906;2024-03-08T08:58:06;7.40;1.00
18717;DHT22;9487;50.892;6.906;2024-03-08T09:00:33;7.30;1.00
18717;DHT22;9487;50.892;6.906;2024-03-08T09:03:00;7.40;1.00
18717;DHT22;9487;50.892;6.906;2024-03-08T09:05:28;7.50;1.00
18717;DHT22;9487;50.892;6.906;2024-03-08T09:07:55;7.50;99.90
18717;DHT22;9487;50.892;6.906;2024-03-08T09:10:23;7.50;99.90
18717;DHT22;9487;50.892;6.906;2024-03-08T09:12:50;7.70;99.90
18717;DHT22;9487;50.892;6.906;2024-03-08T09:15:18;7.80;99.90
18717;DHT22;9487;50.892;6.906;2024-03-08T09:17:46;7.70;99.90
18717;DHT22;9487;50.892;6.906;2024-03-08T09:20:14;7.70;99.90
18717;DHT22;9487;50.892;6.906;2024-03-08T09:22:43;7.70;99.90
18717;DHT22;9487;50.892;6.906;2024-03-08T09:25:10;7.70;99.90
18717;DHT22;9487;50.892;6.906;2024-03-08T09:27:38;7.70;99.90
18717;DHT22;9487;50.892;6.906;2024-03-08T09:30:07;7.80;99.90
18717;DHT22;9487;50.892;6.906;2024-03-08T09:32:34;8.00;99.90
18717;DHT22;9487;50.892;6.906;2024-03-08T09:35:02;8.20;1.00
18717;DHT22;9487;50.892;6.906;2024-03-08T09:37:32;8.30;1.00
18717;DHT22;9487;50.892;6.906;2024-03-08T09:39:59;8.30;17.10
18717;DHT22;9487;50.892;6.906;2024-03-08T09:42:30;8.40;1.00
18717;DHT22;9487;50.892;6.906;2024-03-08T09:44:58;8.60;1.00
18717;DHT22;9487;50.892;6.906;2024-03-08T09:47:26;8.60;99.90
18717;DHT22;9487;50.892;6.906;2024-03-08T09:49:59;8.80;85.30
18717;DHT22;9487;50.892;6.906;2024-03-08T09:52:26;8.90;1.00
18717;DHT22;9487;50.892;6.906;2024-03-08T09:54:56;9.00;1.00
18717;DHT22;9487;50.892;6.906;2024-03-08T09:57:23;9.10;1.00
18717;DHT22;9487;50.892;6.906;2024-03-08T09:59:51;9.40;1.00
18717;DHT22;9487;50.892;6.906;2024-03-08T10:02:20;9.50;1.00
18717;DHT22;9487;50.892;6.906;2024-03-08T10:04:47;9.50;1.00
18717;DHT22;9487;50.892;6.906;2024-03-08T10:07:13;9.50;1.00
18717;DHT22;9487;50.892;6.906;2024-03-08T10:09:41;9.50;1.00
18717;DHT22;9487;50.892;6.906;2024-03-08T10:12:12;9.80;99.90
18717;DHT22;9487;50.892;6.906;2024-03-08T10:14:40;9.70;24.70
18717;DHT22;9487;50.892;6.906;2024-03-08T10:17:08;9.80;99.90
18717;DHT22;9487;50.892;6.906;2024-03-08T10:19:36;9.80;99.90
18717;DHT22;9487;50.892;6.906;2024-03-08T10:22:04;9.80;99.90
18717;DHT22;9487;50.892;6.906;2024-03-08T10:24:32;9.70;1.00
18717;DHT22;9487;50.892;6.906;2024-03-08T10:27:00;9.80;1.00
18717;DHT22;9487;50.892;6.906;2024-03-08T10:29:30;9.90;1.00
18717;DHT22;9487;50.892;6.906;2024-03-08T10:31:57;9.90;1.00
18717;DHT22;9487;50.892;6.906;2024-03-08T10:34:24;9.90;1.00
18717;DHT22;9487;50.892;6.906;2024-03-08T10:36:53;10.00;1.00
18717;DHT22;9487;50.892;6.906;2024-03-08T10:39:25;10.20;99.90
18717;DHT22;9487;50.892;6.906;2024-03-08T10:41:57;10.20;99.90
18717;DHT22;9487;50.892;6.906;2024-03-08T10:44:40;10.10;99.90
18717;DHT22;9487;50.892;6.906;2024-03-08T10:47:16;10.10;99.90
18717;DHT22;9487;50.892;6.906;2024-03-08T10:49:51;10.30;99.90
18717;DHT22;9487;50.892;6.906;2024-03-08T10:52:20;10.30;99.90
18717;DHT22;9487;50.892;6.906;2024-03-08T10:54:48;10.30;99.90
18717;DHT22;9487;50.892;6.906;2024-03-08T10:57:17;10.50;99.90
18717;DHT22;9487;50.892;6.906;2024-03-08T10:59:47;10.60;99.90
18717;DHT22;9487;50.892;6.906;2024-03-08T11:02:16;10.50;1.00
18717;DHT22;9487;50.892;6.906;2024-03-08T11:04:48;10.40;1.00
18717;DHT22;9487;50.892;6.906;2024-03-08T11:07:15;10.40;1.00
18717;DHT22;9487;50.892;6.906;2024-03-08T11:09:47;10.50;1.00
18717;DHT22;9487;50.892;6.906;2024-03-08T11:12:22;10.70;1.00
18717;DHT22;9487;50.892;6.906;2024-03-08T11:14:55;10.60;1.00
18717;DHT22;9487;50.892;6.906;2024-03-08T11:17:39;10.50;1.00
18717;DHT22;9487;50.892;6.906;2024-03-08T11:20:10;10.40;1.00
18717;DHT22;9487;50.892;6.906;2024-03-08T11:22:42;10.40;1.00
18717;DHT22;9487;50.892;6.906;2024-03-08T11:25:34;10.70;1.00
18717;DHT22;9487;50.892;6.906;2024-03-08T11:28:11;10.60;1.00
18717;DHT22;9487;50.892;6.906;2024-03-08T11:30:42;10.70;1.00
18717;DHT22;9487;50.892;6.906;2024-03-08T11:33:13;10.60;1.00
18717;DHT22;9487;50.892;6.906;2024-03-08T11:35:44;10.60;1.00
18717;DHT22;9487;50.892;6.906;2024-03-08T11:38:12;10.60;1.00
18717;DHT22;9487;50.892;6.906;2024-03-08T11:40:41;10.60;1.00
18717;DHT22;9487;50.892;6.906;2024-03-08T11:43:08;10.80;9.70
18717;DHT22;9487;50.892;6.906;2024-03-08T11:45:36;11.00;1.00
18717;DHT22;9487;50.892;6.906;2024-03-08T11:50:32;10.80;1.00
18717;DHT22;9487;50.892;6.906;2024-03-08T11:53:03;10.70;1.00
18717;DHT22;9487;50.892;6.906;2024-03-08T11:55:30;10.80;1.00
18717;DHT22;9487;50.892;6.906;2024-03-08T11:58:03;11.00;1.00
18717;DHT22;9487;50.892;6.906;2024-03-08T12:00:31;10.90;1.00
18717;DHT22;9487;50.892;6.906;2024-03-08T12:03:04;10.80;1.00
18717;DHT22;9487;50.892;6.906;2024-03-08T12:05:31;10.90;1.00
18717;DHT22;9487;50.892;6.906;2024-03-08T12:08:00;11.00;1.00
18717;DHT22;9487;50.892;6.906;2024-03-08T12:10:27;11.00;1.00
18717;DHT22;9487;50.892;6.906;2024-03-08T12:12:57;11.10;1.00
18717;DHT22;9487;50.892;6.906;2024-03-08T12:15:27;11.20;1.00
18717;DHT22;9487;50.892;6.906;2024-03-08T12:17:55;11.30;1.00
18717;DHT22;9487;50.892;6.906;2024-03-08T12:20:24;11.40;1.00
18717;DHT22;9487;50.892;6.906;2024-03-08T12:22:52;11.20;99.90
18717;DHT22;9487;50.892;6.906;2024-03-08T12:25:22;11.10;99.90
18717;DHT22;9487;50.892;6.906;2024-03-08T12:27:49;11.20;99.90
18717;DHT22;9487;50.892;6.906;2024-03-08T12:30:20;11.30;1.00
18717;DHT22;9487;50.892;6.906;2024-03-08T12:32:54;11.30;99.90
18717;DHT22;9487;50.892;6.906;2024-03-08T12:35:23;11.30;99.90
18717;DHT22;9487;50.892;6.906;2024-03-08T12:37:52;11.40;99.90
18717;DHT22;9487;50.892;6.906;2024-03-08T12:40:24;11.40;99.90
18717;DHT22;9487;50.892;6.906;2024-03-08T12:42:53;11.40;99.90
18717;DHT22;9487;50.892;6.906;2024-03-08T12:45:20;11.30;99.90
18717;DHT22;9487;50.892;6.906;2024-03-08T12:47:49;11.40;99.90
18717;DHT22;9487;50.892;6.906;2024-03-08T12:50:17;11.50;99.90
18717;DHT22;9487;50.892;6.906;2024-03-08T12:52:44;11.50;99.90
18717;DHT22;9487;50.892;6.906;2024-03-08T12:55:11;11.50;99.90
18717;DHT22;9487;50.892;6.906;2024-03-08T12:57:38;11.50;99.90
18717;DHT22;9487;50.892;6.906;2024-03-08T13:00:05;11.60;99.90
18717;DHT22;9487;50.892;6.906;2024-03-08T13:02:38;11.60;99.90
18717;DHT22;9487;50.892;6.906;2024-03-08T13:05:06;11.70;99.90
18717;DHT22;9487;50.892;6.906;2024-03-08T13:07:37;11.80;99.90
18717;DHT22;9487;50.892;6.906;2024-03-08T13:10:04;11.80;99.90
18717;DHT22;9487;50.892;6.906;2024-03-08T13:12:32;11.90;99.90
18717;DHT22;9487;50.892;6.906;2024-03-08T13:15:01;11.80;99.90
18717;DHT22;9487;50.892;6.906;2024-03-08T13:17:30;11.90;99.90
18717;DHT22;9487;50.892;6.906;2024-03-08T13:19:57;11.90;99.90
18717;DHT22;9487;50.892;6.906;2024-03-08T13:22:24;11.90;99.90
18717;DHT22;9487;50.892;6.906;2024-03-08T13:24:52;12.00;99.90
18717;DHT22;9487;50.892;6.906;2024-03-08T13:27:19;12.00;99.90
18717;DHT22;9487;50.892;6.906;2024-03-08T13:29:47;12.00;99.90
18717;DHT22;9487;50.892;6.906;2024-03-08T13:32:15;12.00;99.90
18717;DHT22;9487;50.892;6.906;2024-03-08T13:34:42;11.90;99.90
18717;DHT22;9487;50.892;6.906;2024-03-08T13:37:10;12.00;99.90
18717;DHT22;9487;50.892;6.906;2024-03-08T13:39:37;11.90;99.90
18717;DHT22;9487;50.892;6.906;2024-03-08T13:42:11;12.00;99.90
18717;DHT22;9487;50.892;6.906;2024-03-08T13:44:43;12.00;99.90
18717;DHT22;9487;50.892;6.906;2024-03-08T13:47:10;11.90;44.30
18717;DHT22;9487;50.892;6.906;2024-03-08T13:49:37;12.00;99.90
18717;DHT22;9487;50.892;6.906;2024-03-08T13:52:04;12.00;99.90
18717;DHT22;9487;50.892;6.906;2024-03-08T13:54:33;12.10;99.90
18717;DHT22;9487;50.892;6.906;2024-03-08T13:57:01;12.10;99.90
18717;DHT22;9487;50.892;6.906;2024-03-08T13:59:30;12.10;85.10
18717;DHT22;9487;50.892;6.906;2024-03-08T14:01:58;12.10;95.40
18717;DHT22;9487;50.892;6.906;2024-03-08T14:04:27;12.10;57.00
18717;DHT22;9487;50.892;6.906;2024-03-08T14:06:54;12.10;99.90
18717;DHT22;9487;50.892;6.906;2024-03-08T14:09:23;12.10;96.80
18717;DHT22;9487;50.892;6.906;2024-03-08T14:11:50;12.10;78.90
18717;DHT22;9487;50.892;6.906;2024-03-08T14:14:20;12.10;99.90
18717;DHT22;9487;50.892;6.906;2024-03-08T14:16:50;12.10;99.90
18717;DHT22;9487;50.892;6.906;2024-03-08T14:19:18;12.10;99.90
18717;DHT22;9487;50.892;6.906;2024-03-08T14:21:46;12.30;99.90
18717;DHT22;9487;50.892;6.906;2024-03-08T14:24:14;12.40;99.90
18717;DHT22;9487;50.892;6.906;2024-03-08T14:26:41;12.30;99.90
18717;DHT22;9487;50.892;6.906;2024-03-08T14:29:07;12.20;99.90
18717;DHT22;9487;50.892;6.906;2024-03-08T14:31:35;12.20;99.90
18717;DHT22;9487;50.892;6.906;2024-03-08T14:34:03;12.20;99.90
18717;DHT22;9487;50.892;6.906;2024-03-08T14:36:31;12.30;99.90
18717;DHT22;9487;50.892;6.906;2024-03-08T14:38:58;12.40;99.90
18717;DHT22;9487;50.892;6.906;2024-03-08T14:41:25;12.40;99.90
18717;DHT22;9487;50.892;6.906;2024-03-08T14:43:52;12.30;95.90
18717;DHT22;9487;50.892;6.906;2024-03-08T14:46:22;12.30;76.90
18717;DHT22;9487;50.892;6.906;2024-03-08T14:48:49;12.40;13.30
18717;DHT22;9487;50.892;6.906;2024-03-08T14:51:19;12.40;25.30
18717;DHT22;9487;50.892;6.906;2024-03-08T14:53:48;12.40;27.80
18717;DHT22;9487;50.892;6.906;2024-03-08T14:56:16;12.60;81.80
18717;DHT22;9487;50.892;6.906;2024-03-08T14:58:43;12.50;3.30
18717;DHT22;9487;50.892;6.906;2024-03-08T15:01:10;12.50;99.90
18717;DHT22;9487;50.892;6.906;2024-03-08T15:03:39;12.70;99.90
18717;DHT22;9487;50.892;6.906;2024-03-08T15:06:06;12.80;99.90
18717;DHT22;9487;50.892;6.906;2024-03-08T15:08:37;12.80;99.90
18717;DHT22;9487;50.892;6.906;2024-03-08T15:11:04;12.70;99.90
18717;DHT22;9487;50.892;6.906;2024-03-08T15:13:31;12.80;99.90
18717;DHT22;9487;50.892;6.906;2024-03-08T15:16:05;12.70;99.90
18717;DHT22;9487;50.892;6.906;2024-03-08T15:18:33;12.50;99.90
18717;DHT22;9487;50.892;6.906;2024-03-08T15:21:02;12.70;99.90
18717;DHT22;9487;50.892;6.906;2024-03-08T15:23:32;12.60;99.90
18717;DHT22;9487;50.892;6.906;2024-03-08T15:26:00;12.50;99.90
18717;DHT22;9487;50.892;6.906;2024-03-08T15:28:29;12.60;99.90
18717;DHT22;9487;50.892;6.906;2024-03-08T15:31:03;12.70;99.90
18717;DHT22;9487;50.892;6.906;2024-03-08T15:33:33;12.80;99.90
18717;DHT22;9487;50.892;6.906;2024-03-08T15:36:00;12.80;90.20
18717;DHT22;9487;50.892;6.906;2024-03-08T15:38:33;13.00;92.50
18717;DHT22;9487;50.892;6.906;2024-03-08T15:41:01;13.20;9.10
18717;DHT22;9487;50.892;6.906;2024-03-08T15:43:32;13.00;1.00
18717;DHT22;9487;50.892;6.906;2024-03-08T15:46:00;13.10;5.90
18717;DHT22;9487;50.892;6.906;2024-03-08T15:48:30;13.10;2.10
18717;DHT22;9487;50.892;6.906;2024-03-08T15:50:57;13.10;1.00
18717;DHT22;9487;50.892;6.906;2024-03-08T15:53:27;13.00;1.00
18717;DHT22;9487;50.892;6.906;2024-03-08T15:55:56;12.90;1.00
18717;DHT22;9487;50.892;6.906;2024-03-08T15:58:25;12.80;1.00
18717;DHT22;9487;50.892;6.906;2024-03-08T16:00:52;12.70;1.00
18717;DHT22;9487;50.892;6.906;2024-03-08T16:03:19;12.80;1.60
18717;DHT22;9487;50.892;6.906;2024-03-08T16:05:46;12.90;39.20
18717;DHT22;9487;50.892;6.906;2024-03-08T16:08:15;12.90;9.10
18717;DHT22;9487;50.892;6.906;2024-03-08T16:10:44;12.80;47.90
18717;DHT22;9487;50.892;6.906;2024-03-08T16:13:14;12.80;29.50
18717;DHT22;9487;50.892;6.906;2024-03-08T16:15:43;12.80;21.40